sensor_id;sensor_type;location;lat;lon;timestamp;temperature;humidity
26579;DHT22;14227;47.674;19.320;2023-05-14T03:39:18;12.10;70.30
26579;DHT22;14227;47.674;19.320;2023-05-14T03:55:00;12.50;70.00
26579;DHT22;14227;47.674;19.320;2023-05-14T04:00:51;12.70;69.30
26579;DHT22;14227;47.674;19.320;2023-05-14T04:06:44;12.90;68.40
26579;DHT22;14227;47.674;19.320;2023-05-14T04:15:27;13.10;67.50
26579;DHT22;14227;47.674;19.320;2023-05-14T04:17:55;13.10;67.30
26579;DHT22;14227;47.674;19.320;2023-05-14T04:20:25;13.20;66.80
26579;DHT22;14227;47.674;19.320;2023-05-14T04:22:53;13.10;66.00
26579;DHT22;14227;47.674;19.320;2023-05-14T04:27:53;13.30;66.10
26579;DHT22;14227;47.674;19.320;2023-05-14T04:30:19;13.30;65.50
26579;DHT22;14227;47.674;19.320;2023-05-14T04:32:50;13.30;65.30
26579;DHT22;14227;47.674;19.320;2023-05-14T04:35:16;13.40;65.50
26579;DHT22;14227;47.674;19.320;2023-05-14T04:37:44;13.50;65.70
26579;DHT22;14227;47.674;19.320;2023-05-14T04:40:10;13.50;65.00
26579;DHT22;14227;47.674;19.320;2023-05-14T04:42:37;13.50;64.80
26579;DHT22;14227;47.674;19.320;2023-05-14T04:45:05;13.60;64.90
26579;DHT22;14227;47.674;19.320;2023-05-14T04:47:31;13.50;64.40
26579;DHT22;14227;47.674;19.320;2023-05-14T04:49:57;13.70;64.80
26579;DHT22;14227;47.674;19.320;2023-05-14T04:52:24;13.60;63.90
26579;DHT22;14227;47.674;19.320;2023-05-14T04:54:50;13.70;63.70
26579;DHT22;14227;47.674;19.320;2023-05-14T04:57:15;13.70;63.30
26579;DHT22;14227;47.674;19.320;2023-05-14T04:59:44;13.70;63.20
26579;DHT22;14227;47.674;19.320;2023-05-14T05:02:10;13.70;63.40
26579;DHT22;14227;47.674;19.320;2023-05-14T05:04:35;13.70;64.10
26579;DHT22;14227;47.674;19.320;2023-05-14T05:07:04;13.90;64.70
26579;DHT22;14227;47.674;19.320;2023-05-14T05:09:30;14.00;64.60
26579;DHT22;14227;47.674;19.320;2023-05-14T05:14:40;14.10;64.00
26579;DHT22;14227;47.674;19.320;2023-05-14T05:19:55;14.10;63.40
26579;DHT22;14227;47.674;19.320;2023-05-14T05:24:56;14.20;63.50
26579;DHT22;14227;47.674;19.320;2023-05-14T05:27:56;14.20;63.10
26579;DHT22;14227;47.674;19.320;2023-05-14T05:32:59;14.30;63.40
26579;DHT22;14227;47.674;19.320;2023-05-14T05:35:25;14.40;62.70
26579;DHT22;14227;47.674;19.320;2023-05-14T05:37:50;14.40;62.30
26579;DHT22;14227;47.674;19.320;2023-05-14T05:40:16;14.40;61.40
26579;DHT22;14227;47.674;19.320;2023-05-14T05:42:42;14.40;61.20
26579;DHT22;14227;47.674;19.320;2023-05-14T05:45:11;14.40;60.80
26579;DHT22;14227;47.674;19.320;2023-05-14T05:47:39;14.40;61.00
26579;DHT22;14227;47.674;19.320;2023-05-14T05:50:05;14.50;60.80
26579;DHT22;14227;47.674;19.320;2023-05-14T05:52:33;14.60;61.50
26579;DHT22;14227;47.674;19.320;2023-05-14T05:54:59;14.60;60.50
26579;DHT22;14227;47.674;19.320;2023-05-14T05:57:28;14.70;61.10
26579;DHT22;14227;47.674;19.320;2023-05-14T06:00:33;14.70;60.40
26579;DHT22;14227;47.674;19.320;2023-05-14T06:03:02;14.90;60.60
26579;DHT22;14227;47.674;19.320;2023-05-14T06:05:27;14.90;60.60
26579;DHT22;14227;47.674;19.320;2023-05-14T06:07:56;15.00;59.60
26579;DHT22;14227;47.674;19.320;2023-05-14T06:13:00;15.20;59.30
26579;DHT22;14227;47.674;19.320;2023-05-14T06:15:26;15.30;59.50
26579;DHT22;14227;47.674;19.320;2023-05-14T06:17:54;15.40;58.80
26579;DHT22;14227;47.674;19.320;2023-05-14T06:20:23;15.50;58.20
26579;DHT22;14227;47.674;19.320;2023-05-14T06:22:55;15.50;58.00
26579;DHT22;14227;47.674;19.320;2023-05-14T06:25:44;15.40;57.70
26579;DHT22;14227;47.674;19.320;2023-05-14T06:28:10;15.60;58.40
26579;DHT22;14227;47.674;19.320;2023-05-14T06:30:36;15.50;58.30
26579;DHT22;14227;47.674;19.320;2023-05-14T06:35:50;15.70;58.80
26579;DHT22;14227;47.674;19.320;2023-05-14T06:38:16;15.70;57.30
26579;DHT22;14227;47.674;19.320;2023-05-14T06:40:42;15.70;57.30
26579;DHT22;14227;47.674;19.320;2023-05-14T06:43:08;15.80;57.10
26579;DHT22;14227;47.674;19.320;2023-05-14T06:45:34;15.80;57.60
26579;DHT22;14227;47.674;19.320;2023-05-14T06:58:23;16.10;56.60
26579;DHT22;14227;47.674;19.320;2023-05-14T07:00:58;16.20;56.80
26579;DHT22;14227;47.674;19.320;2023-05-14T07:06:47;16.40;55.00
26579;DHT22;14227;47.674;19.320;2023-05-14T07:09:39;16.50;54.70
26579;DHT22;14227;47.674;19.320;2023-05-14T07:12:12;16.40;54.60
26579;DHT22;14227;47.674;19.320;2023-05-14T07:15:03;16.40;54.30
26579;DHT22;14227;47.674;19.320;2023-05-14T07:17:31;16.60;55.30
26579;DHT22;14227;47.674;19.320;2023-05-14T07:19:56;16.60;54.60
26579;DHT22;14227;47.674;19.320;2023-05-14T07:25:48;16.70;54.50
26579;DHT22;14227;47.674;19.320;2023-05-14T07:31:49;16.90;54.00
26579;DHT22;14227;47.674;19.320;2023-05-14T07:34:14;16.90;53.60
26579;DHT22;14227;47.674;19.320;2023-05-14T07:36:47;16.90;53.40
26579;DHT22;14227;47.674;19.320;2023-05-14T07:39:13;16.90;53.10
26579;DHT22;14227;47.674;19.320;2023-05-14T07:41:39;17.10;52.90
26579;DHT22;14227;47.674;19.320;2023-05-14T07:44:04;17.20;52.40
26579;DHT22;14227;47.674;19.320;2023-05-14T07:46:30;17.40;52.60
26579;DHT22;14227;47.674;19.320;2023-05-14T07:48:56;17.60;52.70
26579;DHT22;14227;47.674;19.320;2023-05-14T07:51:21;17.90;53.00
26579;DHT22;14227;47.674;19.320;2023-05-14T07:53:47;18.00;51.00
26579;DHT22;14227;47.674;19.320;2023-05-14T07:56:13;18.40;50.80
26579;DHT22;14227;47.674;19.320;2023-05-14T07:58:41;18.70;49.80
26579;DHT22;14227;47.674;19.320;2023-05-14T08:01:07;18.90;49.10
26579;DHT22;14227;47.674;19.320;2023-05-14T08:03:33;19.00;47.40
26579;DHT22;14227;47.674;19.320;2023-05-14T08:06:00;19.30;46.80
26579;DHT22;14227;47.674;19.320;2023-05-14T08:08:26;19.60;45.30
26579;DHT22;14227;47.674;19.320;2023-05-14T08:10:52;19.60;43.80
26579;DHT22;14227;47.674;19.320;2023-05-14T08:13:17;19.80;43.90
26579;DHT22;14227;47.674;19.320;2023-05-14T08:15:43;19.90;43.60
26579;DHT22;14227;47.674;19.320;2023-05-14T08:18:09;20.10;42.90
26579;DHT22;14227;47.674;19.320;2023-05-14T08:20:34;20.30;43.10
26579;DHT22;14227;47.674;19.320;2023-05-14T08:23:00;20.50;42.60
26579;DHT22;14227;47.674;19.320;2023-05-14T08:25:27;20.60;42.40
26579;DHT22;14227;47.674;19.320;2023-05-14T08:27:54;20.80;41.50
26579;DHT22;14227;47.674;19.320;2023-05-14T08:33:25;20.90;40.60
26579;DHT22;14227;47.674;19.320;2023-05-14T08:35:53;20.90;41.10
26579;DHT22;14227;47.674;19.320;2023-05-14T08:38:54;20.50;40.90
26579;DHT22;14227;47.674;19.320;2023-05-14T08:41:19;20.70;41.70
26579;DHT22;14227;47.674;19.320;2023-05-14T08:44:11;20.80;40.90
26579;DHT22;14227;47.674;19.320;2023-05-14T08:46:40;20.90;40.90
26579;DHT22;14227;47.674;19.320;2023-05-14T08:52:24;20.90;41.00
26579;DHT22;14227;47.674;19.320;2023-05-14T08:54:51;20.80;40.10
26579;DHT22;14227;47.674;19.320;2023-05-14T08:57:19;20.70;40.20
26579;DHT22;14227;47.674;19.320;2023-05-14T08:59:46;20.60;41.50
26579;DHT22;14227;47.674;19.320;2023-05-14T09:02:14;20.60;41.40
26579;DHT22;14227;47.674;19.320;2023-05-14T09:04:42;20.70;41.60
26579;DHT22;14227;47.674;19.320;2023-05-14T09:07:09;20.80;42.10
26579;DHT22;14227;47.674;19.320;2023-05-14T09:09:36;20.90;43.10
26579;DHT22;14227;47.674;19.320;2023-05-14T09:12:04;20.70;41.30
26579;DHT22;14227;47.674;19.320;2023-05-14T09:14:31;20.50;41.30
26579;DHT22;14227;47.674;19.320;2023-05-14T09:16:57;20.40;41.70
26579;DHT22;14227;47.674;19.320;2023-05-14T09:19:23;20.40;41.30
26579;DHT22;14227;47.674;19.320;2023-05-14T09:21:50;20.40;41.10
26579;DHT22;14227;47.674;19.320;2023-05-14T09:24:41;20.30;41.50
26579;DHT22;14227;47.674;19.320;2023-05-14T09:27:08;20.10;41.90
26579;DHT22;14227;47.674;19.320;2023-05-14T09:29:34;20.10;43.40
26579;DHT22;14227;47.674;19.320;2023-05-14T09:32:00;19.90;43.10
26579;DHT22;14227;47.674;19.320;2023-05-14T09:34:33;19.80;43.10
26579;DHT22;14227;47.674;19.320;2023-05-14T09:37:04;19.60;43.10
26579;DHT22;14227;47.674;19.320;2023-05-14T09:39:31;19.40;43.60
26579;DHT22;14227;47.674;19.320;2023-05-14T09:41:57;19.30;43.50
26579;DHT22;14227;47.674;19.320;2023-05-14T09:44:23;19.30;45.20
26579;DHT22;14227;47.674;19.320;2023-05-14T09:46:50;19.30;45.90
26579;DHT22;14227;47.674;19.320;2023-05-14T09:49:16;19.30;46.20
26579;DHT22;14227;47.674;19.320;2023-05-14T09:51:42;19.00;46.00
26579;DHT22;14227;47.674;19.320;2023-05-14T09:54:08;18.90;48.00
26579;DHT22;14227;47.674;19.320;2023-05-14T09:56:35;18.70;50.90
26579;DHT22;14227;47.674;19.320;2023-05-14T09:59:01;18.50;50.90
26579;DHT22;14227;47.674;19.320;2023-05-14T10:01:30;18.20;51.30
26579;DHT22;14227;47.674;19.320;2023-05-14T10:03:57;18.00;53.10
26579;DHT22;14227;47.674;19.320;2023-05-14T10:06:32;17.90;53.00
26579;DHT22;14227;47.674;19.320;2023-05-14T10:09:53;17.70;54.90
26579;DHT22;14227;47.674;19.320;2023-05-14T10:25:14;16.90;59.40
26579;DHT22;14227;47.674;19.320;2023-05-14T10:28:14;16.90;60.60
26579;DHT22;14227;47.674;19.320;2023-05-14T10:30:44;16.80;60.90
26579;DHT22;14227;47.674;19.320;2023-05-14T10:33:12;16.90;62.10
26579;DHT22;14227;47.674;19.320;2023-05-14T10:42:27;17.10;65.80
26579;DHT22;14227;47.674;19.320;2023-05-14T10:45:03;17.30;66.70
26579;DHT22;14227;47.674;19.320;2023-05-14T10:47:32;17.50;66.20
26579;DHT22;14227;47.674;19.320;2023-05-14T10:50:00;17.80;66.80
26579;DHT22;14227;47.674;19.320;2023-05-14T10:52:26;18.00;66.50
26579;DHT22;14227;47.674;19.320;2023-05-14T10:54:56;17.90;65.20
26579;DHT22;14227;47.674;19.320;2023-05-14T10:57:24;17.80;63.00
26579;DHT22;14227;47.674;19.320;2023-05-14T10:59:59;17.50;62.90
26579;DHT22;14227;47.674;19.320;2023-05-14T11:02:31;17.30;62.80
26579;DHT22;14227;47.674;19.320;2023-05-14T11:05:05;17.20;62.70
26579;DHT22;14227;47.674;19.320;2023-05-14T11:07:55;17.10;62.60
26579;DHT22;14227;47.674;19.320;2023-05-14T11:10:23;17.10;62.70
26579;DHT22;14227;47.674;19.320;2023-05-14T11:12:50;17.00;62.80
26579;DHT22;14227;47.674;19.320;2023-05-14T11:15:19;17.00;63.20
26579;DHT22;14227;47.674;19.320;2023-05-14T11:17:49;17.00;63.10
26579;DHT22;14227;47.674;19.320;2023-05-14T11:20:16;17.00;63.20
26579;DHT22;14227;47.674;19.320;2023-05-14T11:22:45;17.00;63.20
26579;DHT22;14227;47.674;19.320;2023-05-14T11:25:12;17.10;63.20
26579;DHT22;14227;47.674;19.320;2023-05-14T11:27:40;17.10;63.00
26579;DHT22;14227;47.674;19.320;2023-05-14T11:30:17;17.10;63.20
26579;DHT22;14227;47.674;19.320;2023-05-14T11:32:46;17.10;63.10
26579;DHT22;14227;47.674;19.320;2023-05-14T11:35:13;17.10;63.30
26579;DHT22;14227;47.674;19.320;2023-05-14T11:37:41;17.10;63.20
26579;DHT22;14227;47.674;19.320;2023-05-14T11:40:17;17.10;63.40
26579;DHT22;14227;47.674;19.320;2023-05-14T11:42:44;17.10;63.30
26579;DHT22;14227;47.674;19.320;2023-05-14T11:45:10;17.10;63.00
26579;DHT22;14227;47.674;19.320;2023-05-14T11:47:42;17.10;63.20
26579;DHT22;14227;47.674;19.320;2023-05-14T11:50:08;17.10;63.00
26579;DHT22;14227;47.674;19.320;2023-05-14T14:01:31;17.50;62.90
26579;DHT22;14227;47.674;19.320;2023-05-14T14:09:51;17.50;61.80
26579;DHT22;14227;47.674;19.320;2023-05-14T14:12:18;17.50;62.00
